sensor_id;sensor_type;location;lat;lon;timestamp;pressure;altitude;pressure_sealevel;temperature;humidity
64064;BME280;50314;50.618;10.642;2022-09-09T00:02:18;96298.75;;;22.29;27.06
64064;BME280;50314;50.618;10.642;2022-09-09T00:04:55;96295.72;;;22.32;26.75
64064;BME280;50314;50.618;10.642;2022-09-09T00:07:39;96291.50;;;22.23;27.34
64064;BME280;50314;50.618;10.642;2022-09-09T00:18:50;96296.22;;;22.21;27.01
64064;BME280;50314;50.618;10.642;2022-09-09T00:21:17;96287.78;;;22.24;26.76
64064;BME280;50314;50.618;10.642;2022-09-09T00:23:51;96285.69;;;22.19;26.94
64064;BME280;50314;50.618;10.642;2022-09-09T00:31:34;96290.03;;;22.20;27.02
64064;BME280;50314;50.618;10.642;2022-09-09T00:34:09;96292.06;;;22.18;26.88
64064;BME280;50314;50.618;10.642;2022-09-09T00:36:36;96283.84;;;22.20;26.89
64064;BME280;50314;50.618;10.642;2022-09-09T00:39:03;96281.13;;;22.13;27.33
64064;BME280;50314;50.618;10.642;2022-09-09T00:44:00;96281.94;;;22.14;26.84
64064;BME280;50314;50.618;10.642;2022-09-09T00:57:53;96278.19;;;22.08;27.29
64064;BME280;50314;50.618;10.642;2022-09-09T01:00:27;96281.28;;;22.05;27.00
64064;BME280;50314;50.618;10.642;2022-09-09T01:06:16;96272.97;;;22.00;27.22
64064;BME280;50314;50.618;10.642;2022-09-09T01:11:33;96270.69;;;21.97;27.05
64064;BME280;50314;50.618;10.642;2022-09-09T01:19:49;96277.25;;;21.94;27.43
64064;BME280;50314;50.618;10.642;2022-09-09T01:27:48;96280.59;;;21.96;27.28
64064;BME280;50314;50.618;10.642;2022-09-09T01:30:16;96285.94;;;21.96;27.16
64064;BME280;50314;50.618;10.642;2022-09-09T01:32:53;96274.78;;;21.93;27.45
64064;BME280;50314;50.618;10.642;2022-09-09T01:35:32;96275.41;;;21.95;27.33
64064;BME280;50314;50.618;10.642;2022-09-09T01:38:00;96265.53;;;21.95;27.14
64064;BME280;50314;50.618;10.642;2022-09-09T01:40:26;96271.06;;;21.94;27.07
64064;BME280;50314;50.618;10.642;2022-09-09T01:42:52;96275.63;;;21.93;27.28
64064;BME280;50314;50.618;10.642;2022-09-09T01:45:18;96281.81;;;21.94;27.04
64064;BME280;50314;50.618;10.642;2022-09-09T01:47:45;96268.59;;;21.92;27.38
64064;BME280;50314;50.618;10.642;2022-09-09T01:50:13;96278.91;;;21.89;27.28
64064;BME280;50314;50.618;10.642;2022-09-09T01:52:40;96273.31;;;21.90;27.36
64064;BME280;50314;50.618;10.642;2022-09-09T01:55:06;96273.16;;;21.92;27.29
64064;BME280;50314;50.618;10.642;2022-09-09T01:57:50;96268.56;;;21.86;27.46
64064;BME280;50314;50.618;10.642;2022-09-09T02:00:19;96280.34;;;21.91;27.26
64064;BME280;50314;50.618;10.642;2022-09-09T02:08:05;96273.47;;;21.82;27.37
64064;BME280;50314;50.618;10.642;2022-09-09T02:10:37;96272.44;;;21.83;27.41
64064;BME280;50314;50.618;10.642;2022-09-09T02:13:11;96272.25;;;21.85;27.33
64064;BME280;50314;50.618;10.642;2022-09-09T02:18:44;96282.13;;;21.84;27.11
64064;BME280;50314;50.618;10.642;2022-09-09T02:21:13;96282.97;;;21.85;27.36
64064;BME280;50314;50.618;10.642;2022-09-09T02:23:41;96285.47;;;21.86;27.42
64064;BME280;50314;50.618;10.642;2022-09-09T02:26:09;96283.81;;;21.85;27.09
64064;BME280;50314;50.618;10.642;2022-09-09T02:28:36;96281.31;;;21.84;27.34
64064;BME280;50314;50.618;10.642;2022-09-09T02:31:02;96284.13;;;21.75;27.26
64064;BME280;50314;50.618;10.642;2022-09-09T02:33:37;96282.91;;;21.78;27.36
64064;BME280;50314;50.618;10.642;2022-09-09T02:36:04;96263.75;;;21.81;27.30
64064;BME280;50314;50.618;10.642;2022-09-09T02:38:35;96269.13;;;21.81;27.15
64064;BME280;50314;50.618;10.642;2022-09-09T02:41:05;96268.31;;;21.80;26.96
64064;BME280;50314;50.618;10.642;2022-09-09T02:43:34;96269.72;;;21.76;27.43
64064;BME280;50314;50.618;10.642;2022-09-09T02:46:20;96265.53;;;21.74;27.21
64064;BME280;50314;50.618;10.642;2022-09-09T02:49:28;96259.56;;;21.72;27.30
64064;BME280;50314;50.618;10.642;2022-09-09T02:52:02;96259.00;;;21.76;27.21
64064;BME280;50314;50.618;10.642;2022-09-09T02:54:35;96258.31;;;21.74;27.22
64064;BME280;50314;50.618;10.642;2022-09-09T02:57:22;96258.09;;;21.69;27.31
64064;BME280;50314;50.618;10.642;2022-09-09T02:59:49;96256.88;;;21.72;27.31
64064;BME280;50314;50.618;10.642;2022-09-09T03:02:17;96254.19;;;21.72;27.35
64064;BME280;50314;50.618;10.642;2022-09-09T03:04:44;96260.38;;;21.72;27.37
64064;BME280;50314;50.618;10.642;2022-09-09T03:07:12;96259.56;;;21.72;27.49
64064;BME280;50314;50.618;10.642;2022-09-09T03:09:37;96254.81;;;21.74;27.20
64064;BME280;50314;50.618;10.642;2022-09-09T03:12:03;96258.53;;;21.73;27.25
64064;BME280;50314;50.618;10.642;2022-09-09T03:14:32;96253.16;;;21.73;27.33
64064;BME280;50314;50.618;10.642;2022-09-09T03:16:57;96251.53;;;21.72;27.28
64064;BME280;50314;50.618;10.642;2022-09-09T03:19:26;96256.88;;;21.72;27.30
64064;BME280;50314;50.618;10.642;2022-09-09T03:21:52;96256.00;;;21.65;27.49
64064;BME280;50314;50.618;10.642;2022-09-09T03:24:18;96252.53;;;21.71;27.38
64064;BME280;50314;50.618;10.642;2022-09-09T03:26:43;96259.56;;;21.72;27.03
64064;BME280;50314;50.618;10.642;2022-09-09T03:29:12;96259.13;;;21.68;27.29
64064;BME280;50314;50.618;10.642;2022-09-09T03:31:38;96254.59;;;21.69;27.25
64064;BME280;50314;50.618;10.642;2022-09-09T03:34:05;96266.31;;;21.68;27.33
64064;BME280;50314;50.618;10.642;2022-09-09T03:36:32;96258.09;;;21.69;27.30
64064;BME280;50314;50.618;10.642;2022-09-09T03:38:58;96266.31;;;21.68;27.25
64064;BME280;50314;50.618;10.642;2022-09-09T03:41:24;96261.97;;;21.67;26.93
64064;BME280;50314;50.618;10.642;2022-09-09T03:43:51;96257.66;;;21.66;27.16
64064;BME280;50314;50.618;10.642;2022-09-09T03:46:17;96260.94;;;21.68;27.37
64064;BME280;50314;50.618;10.642;2022-09-09T03:48:43;96260.94;;;21.68;27.40
64064;BME280;50314;50.618;10.642;2022-09-09T03:51:09;96264.28;;;21.70;27.31
64064;BME280;50314;50.618;10.642;2022-09-09T03:53:34;96259.31;;;21.67;27.38
64064;BME280;50314;50.618;10.642;2022-09-09T03:56:00;96256.00;;;21.65;27.37
64064;BME280;50314;50.618;10.642;2022-09-09T03:58:27;96253.50;;;21.63;27.38
64064;BME280;50314;50.618;10.642;2022-09-09T04:01:02;96258.44;;;21.59;27.28
64064;BME280;50314;50.618;10.642;2022-09-09T04:03:28;96252.69;;;21.63;27.26
64064;BME280;50314;50.618;10.642;2022-09-09T04:05:55;96247.31;;;21.63;27.37
64064;BME280;50314;50.618;10.642;2022-09-09T04:08:21;96248.16;;;21.63;27.44
64064;BME280;50314;50.618;10.642;2022-09-09T04:10:49;96248.16;;;21.63;27.50
64064;BME280;50314;50.618;10.642;2022-09-09T04:13:16;96252.69;;;21.63;27.47
64064;BME280;50314;50.618;10.642;2022-09-09T04:15:42;96246.66;;;21.61;27.26
64064;BME280;50314;50.618;10.642;2022-09-09T04:18:08;96256.78;;;21.58;27.57
64064;BME280;50314;50.618;10.642;2022-09-09T04:20:34;96259.47;;;21.58;27.12
64064;BME280;50314;50.618;10.642;2022-09-09T04:23:00;96260.47;;;21.57;27.26
64064;BME280;50314;50.618;10.642;2022-09-09T04:25:26;96258.81;;;21.56;27.37
64064;BME280;50314;50.618;10.642;2022-09-09T04:27:55;96260.00;;;21.54;27.75
64064;BME280;50314;50.618;10.642;2022-09-09T04:30:20;96263.72;;;21.53;27.48
64064;BME280;50314;50.618;10.642;2022-09-09T04:32:46;96248.47;;;21.53;27.48
64064;BME280;50314;50.618;10.642;2022-09-09T04:35:11;96257.16;;;21.55;27.18
64064;BME280;50314;50.618;10.642;2022-09-09T04:37:37;96254.47;;;21.55;27.44
64064;BME280;50314;50.618;10.642;2022-09-09T04:40:02;96263.72;;;21.53;27.22
64064;BME280;50314;50.618;10.642;2022-09-09T04:42:28;96258.56;;;21.51;27.54
64064;BME280;50314;50.618;10.642;2022-09-09T04:44:53;96268.44;;;21.51;27.28
64064;BME280;50314;50.618;10.642;2022-09-09T04:47:19;96261.63;;;21.48;27.43
64064;BME280;50314;50.618;10.642;2022-09-09T04:49:45;96267.00;;;21.48;27.53
64064;BME280;50314;50.618;10.642;2022-09-09T04:52:10;96266.19;;;21.48;27.55
64064;BME280;50314;50.618;10.642;2022-09-09T04:54:36;96257.28;;;21.47;27.51
64064;BME280;50314;50.618;10.642;2022-09-09T04:57:01;96264.31;;;21.48;27.45
64064;BME280;50314;50.618;10.642;2022-09-09T04:59:27;96265.97;;;21.49;27.30
64064;BME280;50314;50.618;10.642;2022-09-09T05:01:52;96276.47;;;21.51;27.33
64064;BME280;50314;50.618;10.642;2022-09-09T05:04:20;96265.31;;;21.47;27.68
64064;BME280;50314;50.618;10.642;2022-09-09T05:06:45;96264.50;;;21.47;27.54
64064;BME280;50314;50.618;10.642;2022-09-09T05:09:11;96275.03;;;21.48;27.35
64064;BME280;50314;50.618;10.642;2022-09-09T05:11:36;96271.31;;;21.49;27.47
64064;BME280;50314;50.618;10.642;2022-09-09T05:14:03;96274.00;;;21.49;27.46
64064;BME280;50314;50.618;10.642;2022-09-09T05:16:29;96273.19;;;21.49;27.16
64064;BME280;50314;50.618;10.642;2022-09-09T05:18:55;96271.53;;;21.48;27.47
64064;BME280;50314;50.618;10.642;2022-09-09T05:21:22;96272.34;;;21.48;27.39
64064;BME280;50314;50.618;10.642;2022-09-09T05:23:48;96274.38;;;21.46;27.47
64064;BME280;50314;50.618;10.642;2022-09-09T05:26:20;96274.75;;;21.43;27.52
64064;BME280;50314;50.618;10.642;2022-09-09T05:28:46;96274.59;;;21.45;27.64
64064;BME280;50314;50.618;10.642;2022-09-09T05:31:13;96260.34;;;21.44;27.47
64064;BME280;50314;50.618;10.642;2022-09-09T05:33:40;96263.03;;;21.44;27.60
64064;BME280;50314;50.618;10.642;2022-09-09T05:36:08;96255.84;;;21.45;27.72
64064;BME280;50314;50.618;10.642;2022-09-09T05:38:35;96265.69;;;21.44;27.59
64064;BME280;50314;50.618;10.642;2022-09-09T05:41:02;96270.22;;;21.44;27.70
64064;BME280;50314;50.618;10.642;2022-09-09T05:43:28;96263.66;;;21.46;27.59
64064;BME280;50314;50.618;10.642;2022-09-09T05:46:10;96264.88;;;21.44;27.72
64064;BME280;50314;50.618;10.642;2022-09-09T05:48:39;96257.28;;;21.47;27.44
64064;BME280;50314;50.618;10.642;2022-09-09T05:51:07;96257.94;;;21.49;27.42
64064;BME280;50314;50.618;10.642;2022-09-09T05:53:33;96266.63;;;21.51;27.44
64064;BME280;50314;50.618;10.642;2022-09-09T05:56:07;96262.06;;;21.52;27.58
64064;BME280;50314;50.618;10.642;2022-09-09T05:58:35;96263.28;;;21.49;27.54
64064;BME280;50314;50.618;10.642;2022-09-09T06:01:09;96252.19;;;21.52;27.59
64064;BME280;50314;50.618;10.642;2022-09-09T06:03:36;96247.50;;;21.61;27.57
64064;BME280;50314;50.618;10.642;2022-09-09T06:06:03;96252.41;;;21.57;27.57
64064;BME280;50314;50.618;10.642;2022-09-09T06:08:31;96256.84;;;21.65;27.11
64064;BME280;50314;50.618;10.642;2022-09-09T06:11:08;96268.75;;;21.63;27.23
64064;BME280;50314;50.618;10.642;2022-09-09T06:13:35;96269.63;;;21.70;27.28
64064;BME280;50314;50.618;10.642;2022-09-09T06:16:03;96273.13;;;21.70;27.06
64064;BME280;50314;50.618;10.642;2022-09-09T06:18:29;96268.59;;;21.71;27.43
64064;BME280;50314;50.618;10.642;2022-09-09T06:21:00;96276.84;;;21.69;27.28
64064;BME280;50314;50.618;10.642;2022-09-09T06:23:27;96277.50;;;21.71;27.30
64064;BME280;50314;50.618;10.642;2022-09-09T06:26:03;96289.03;;;21.72;27.33
64064;BME280;50314;50.618;10.642;2022-09-09T06:28:33;96277.94;;;21.75;27.21
64064;BME280;50314;50.618;10.642;2022-09-09T06:31:05;96283.28;;;21.75;27.13
64064;BME280;50314;50.618;10.642;2022-09-09T06:33:32;96274.47;;;21.81;26.92
64064;BME280;50314;50.618;10.642;2022-09-09T06:36:00;96282.53;;;21.81;27.23
64064;BME280;50314;50.618;10.642;2022-09-09T06:38:26;96285.03;;;21.83;27.25
64064;BME280;50314;50.618;10.642;2022-09-09T06:40:57;96275.34;;;21.81;27.00
64064;BME280;50314;50.618;10.642;2022-09-09T06:43:23;96278.47;;;21.85;27.06
64064;BME280;50314;50.618;10.642;2022-09-09T06:46:00;96283.38;;;21.81;27.25
64064;BME280;50314;50.618;10.642;2022-09-09T06:48:26;96291.66;;;21.87;26.93
64064;BME280;50314;50.618;10.642;2022-09-09T06:51:06;96290.19;;;21.84;27.28
64064;BME280;50314;50.618;10.642;2022-09-09T06:53:33;96295.59;;;21.91;27.00
64064;BME280;50314;50.618;10.642;2022-09-09T06:56:18;96293.69;;;21.85;27.20
64064;BME280;50314;50.618;10.642;2022-09-09T06:58:44;96290.22;;;21.91;26.81
64064;BME280;50314;50.618;10.642;2022-09-09T07:01:56;96295.97;;;21.88;27.13
64064;BME280;50314;50.618;10.642;2022-09-09T07:04:03;96304.47;;;21.91;27.00
64064;BME280;50314;50.618;10.642;2022-09-09T07:06:34;96297.66;;;21.89;27.05
64064;BME280;50314;50.618;10.642;2022-09-09T07:09:03;96304.47;;;21.91;27.27
64064;BME280;50314;50.618;10.642;2022-09-09T07:11:32;96305.09;;;21.93;27.08
64064;BME280;50314;50.618;10.642;2022-09-09T07:13:59;96301.00;;;21.97;26.94
64064;BME280;50314;50.618;10.642;2022-09-09T07:16:25;96302.47;;;22.00;27.10
64064;BME280;50314;50.618;10.642;2022-09-09T07:18:53;96303.28;;;22.00;27.10
64064;BME280;50314;50.618;10.642;2022-09-09T07:21:21;96302.47;;;22.00;26.93
64064;BME280;50314;50.618;10.642;2022-09-09T07:23:47;96306.81;;;22.01;26.86
64064;BME280;50314;50.618;10.642;2022-09-09T07:26:14;96309.31;;;22.02;27.10
64064;BME280;50314;50.618;10.642;2022-09-09T07:28:40;96310.56;;;22.07;27.08
64064;BME280;50314;50.618;10.642;2022-09-09T07:31:08;96308.72;;;22.07;27.17
64064;BME280;50314;50.618;10.642;2022-09-09T07:33:38;96315.53;;;22.10;27.03
64064;BME280;50314;50.618;10.642;2022-09-09T07:36:19;96308.31;;;22.10;27.11
64064;BME280;50314;50.618;10.642;2022-09-09T07:38:52;96303.00;;;22.17;26.66
64064;BME280;50314;50.618;10.642;2022-09-09T07:41:29;96303.25;;;22.22;26.99
64064;BME280;50314;50.618;10.642;2022-09-09T07:43:55;96312.16;;;22.29;26.71
64064;BME280;50314;50.618;10.642;2022-09-09T07:46:23;96309.59;;;22.42;27.16
64064;BME280;50314;50.618;10.642;2022-09-09T07:48:53;96312.50;;;22.47;27.19
64064;BME280;50314;50.618;10.642;2022-09-09T07:51:26;96316.44;;;22.51;26.68
64064;BME280;50314;50.618;10.642;2022-09-09T07:53:54;96313.19;;;22.56;26.82
64064;BME280;50314;50.618;10.642;2022-09-09T07:56:20;96319.38;;;22.57;26.58
64064;BME280;50314;50.618;10.642;2022-09-09T07:58:50;96321.00;;;22.58;26.89
64064;BME280;50314;50.618;10.642;2022-09-09T08:03:46;96314.84;;;22.64;27.00
64064;BME280;50314;50.618;10.642;2022-09-09T08:06:12;96315.28;;;22.67;26.52
64064;BME280;50314;50.618;10.642;2022-09-09T08:08:39;96322.09;;;22.63;26.66
64064;BME280;50314;50.618;10.642;2022-09-09T08:11:12;96313.88;;;22.78;26.70
64064;BME280;50314;50.618;10.642;2022-09-09T08:13:38;96315.41;;;22.87;26.50
64064;BME280;50314;50.618;10.642;2022-09-09T08:16:13;96316.41;;;22.86;26.47
64064;BME280;50314;50.618;10.642;2022-09-09T08:18:39;96313.81;;;23.00;26.75
64064;BME280;50314;50.618;10.642;2022-09-09T08:21:10;96327.47;;;23.11;26.36
64064;BME280;50314;50.618;10.642;2022-09-09T08:23:40;96319.63;;;23.10;26.26
64064;BME280;50314;50.618;10.642;2022-09-09T08:26:17;96320.22;;;23.05;26.18
64064;BME280;50314;50.618;10.642;2022-09-09T08:28:44;96330.38;;;23.10;26.63
64064;BME280;50314;50.618;10.642;2022-09-09T08:31:15;96323.31;;;23.09;26.59
64064;BME280;50314;50.618;10.642;2022-09-09T08:33:42;96330.78;;;23.07;26.34
64064;BME280;50314;50.618;10.642;2022-09-09T08:36:13;96334.88;;;23.03;26.21
64064;BME280;50314;50.618;10.642;2022-09-09T08:38:40;96331.56;;;23.01;26.84
64064;BME280;50314;50.618;10.642;2022-09-09T08:51:59;96330.56;;;23.08;26.19
64064;BME280;50314;50.618;10.642;2022-09-09T08:54:26;96341.13;;;23.10;26.33
64064;BME280;50314;50.618;10.642;2022-09-09T08:56:53;96330.38;;;23.10;26.61
64064;BME280;50314;50.618;10.642;2022-09-09T08:59:18;96333.25;;;23.08;26.21
64064;BME280;50314;50.618;10.642;2022-09-09T09:01:53;96337.16;;;23.06;26.25
64064;BME280;50314;50.618;10.642;2022-09-09T09:04:46;96343.78;;;23.03;26.26
64064;BME280;50314;50.618;10.642;2022-09-09T09:12:46;96342.75;;;23.11;26.17
64064;BME280;50314;50.618;10.642;2022-09-09T09:15:25;96343.34;;;23.06;26.57
64064;BME280;50314;50.618;10.642;2022-09-09T09:17:51;96338.22;;;23.18;26.02
64064;BME280;50314;50.618;10.642;2022-09-09T09:20:21;96337.44;;;23.24;26.03
64064;BME280;50314;50.618;10.642;2022-09-09T09:22:50;96339.09;;;23.32;25.94
64064;BME280;50314;50.618;10.642;2022-09-09T09:25:19;96342.59;;;23.32;26.19
64064;BME280;50314;50.618;10.642;2022-09-09T09:30:26;96340.56;;;23.34;25.78
64064;BME280;50314;50.618;10.642;2022-09-09T09:32:58;96346.34;;;23.31;25.80
64064;BME280;50314;50.618;10.642;2022-09-09T09:35:25;96341.59;;;23.33;26.17
64064;BME280;50314;50.618;10.642;2022-09-09T09:37:50;96344.06;;;23.35;26.37
64064;BME280;50314;50.618;10.642;2022-09-09T09:40:21;96349.00;;;23.31;26.23
64064;BME280;50314;50.618;10.642;2022-09-09T09:43:03;96347.78;;;23.27;25.90
64064;BME280;50314;50.618;10.642;2022-09-09T09:45:40;96344.47;;;23.32;26.23
64064;BME280;50314;50.618;10.642;2022-09-09T09:48:11;96336.53;;;23.91;25.88
64064;BME280;50314;50.618;10.642;2022-09-09T09:50:50;96331.72;;;24.60;25.38
64064;BME280;50314;50.618;10.642;2022-09-09T09:53:18;96328.38;;;24.65;24.72
64064;BME280;50314;50.618;10.642;2022-09-09T09:55:58;96327.63;;;25.09;24.49
64064;BME280;50314;50.618;10.642;2022-09-09T09:58:26;96319.47;;;25.22;24.34
64064;BME280;50314;50.618;10.642;2022-09-09T10:00:53;96310.78;;;25.84;23.86
64064;BME280;50314;50.618;10.642;2022-09-09T10:03:37;96309.00;;;25.96;23.48
64064;BME280;50314;50.618;10.642;2022-09-09T10:06:05;96315.69;;;25.93;23.52
64064;BME280;50314;50.618;10.642;2022-09-09T10:08:43;96317.06;;;25.77;23.33
64064;BME280;50314;50.618;10.642;2022-09-09T10:13:48;96311.09;;;25.69;23.43
64064;BME280;50314;50.618;10.642;2022-09-09T10:21:48;96307.66;;;26.55;22.83
64064;BME280;50314;50.618;10.642;2022-09-09T10:27:19;96294.19;;;26.30;23.00
64064;BME280;50314;50.618;10.642;2022-09-09T10:29:53;96295.53;;;26.21;22.96
64064;BME280;50314;50.618;10.642;2022-09-09T10:35:33;96297.63;;;26.19;23.22
64064;BME280;50314;50.618;10.642;2022-09-09T10:56:51;96293.75;;;27.67;21.15
64064;BME280;50314;50.618;10.642;2022-09-09T10:59:25;96297.28;;;27.68;21.39
64064;BME280;50314;50.618;10.642;2022-09-09T11:01:59;96304.66;;;27.60;21.24
64064;BME280;50314;50.618;10.642;2022-09-09T11:04:33;96330.13;;;27.83;20.96
64064;BME280;50314;50.618;10.642;2022-09-09T11:07:02;96332.22;;;27.81;21.44
64064;BME280;50314;50.618;10.642;2022-09-09T11:09:37;96331.88;;;27.66;21.13
64064;BME280;50314;50.618;10.642;2022-09-09T11:12:05;96334.31;;;27.55;21.31
64064;BME280;50314;50.618;10.642;2022-09-09T11:14:42;96320.78;;;27.37;21.24
64064;BME280;50314;50.618;10.642;2022-09-09T11:20:13;96322.94;;;27.16;21.62
64064;BME280;50314;50.618;10.642;2022-09-09T11:22:55;96310.66;;;27.02;21.27
64064;BME280;50314;50.618;10.642;2022-09-09T11:25:41;96306.09;;;27.03;21.94
64064;BME280;50314;50.618;10.642;2022-09-09T11:28:40;96315.00;;;27.03;21.60
64064;BME280;50314;50.618;10.642;2022-09-09T11:34:16;96307.78;;;27.15;21.81
64064;BME280;50314;50.618;10.642;2022-09-09T11:42:17;96300.06;;;27.19;21.56
64064;BME280;50314;50.618;10.642;2022-09-09T11:44:43;96305.38;;;27.26;21.68
64064;BME280;50314;50.618;10.642;2022-09-09T11:47:30;96297.34;;;27.19;21.69
64064;BME280;50314;50.618;10.642;2022-09-09T11:52:42;96298.97;;;27.08;21.87
64064;BME280;50314;50.618;10.642;2022-09-09T11:55:31;96289.47;;;26.99;22.10
64064;BME280;50314;50.618;10.642;2022-09-09T12:00:41;96293.63;;;27.02;21.29
64064;BME280;50314;50.618;10.642;2022-09-09T12:03:42;96302.25;;;26.92;21.53
64064;BME280;50314;50.618;10.642;2022-09-09T12:06:33;96309.75;;;26.90;22.11
64064;BME280;50314;50.618;10.642;2022-09-09T12:09:19;96303.47;;;26.78;22.16
64064;BME280;50314;50.618;10.642;2022-09-09T12:11:46;96315.31;;;26.77;21.93
64064;BME280;50314;50.618;10.642;2022-09-09T12:14:23;96322.91;;;26.68;21.88
64064;BME280;50314;50.618;10.642;2022-09-09T12:17:09;96339.78;;;26.63;22.38
64064;BME280;50314;50.618;10.642;2022-09-09T12:19:34;96345.78;;;26.65;21.92
64064;BME280;50314;50.618;10.642;2022-09-09T12:22:15;96350.00;;;26.61;22.39
64064;BME280;50314;50.618;10.642;2022-09-09T12:24:56;96369.84;;;26.67;22.16
64064;BME280;50314;50.618;10.642;2022-09-09T12:27:30;96371.44;;;26.75;22.23
64064;BME280;50314;50.618;10.642;2022-09-09T12:30:07;96364.81;;;26.70;22.10
64064;BME280;50314;50.618;10.642;2022-09-09T12:32:35;96364.38;;;26.74;22.12
64064;BME280;50314;50.618;10.642;2022-09-09T12:35:13;96357.94;;;26.75;22.43
64064;BME280;50314;50.618;10.642;2022-09-09T12:37:54;96351.03;;;26.79;22.16
64064;BME280;50314;50.618;10.642;2022-09-09T12:40:27;96344.00;;;26.78;21.81
64064;BME280;50314;50.618;10.642;2022-09-09T12:42:53;96343.06;;;26.84;22.24
64064;BME280;50314;50.618;10.642;2022-09-09T12:45:25;96331.16;;;26.91;22.07
64064;BME280;50314;50.618;10.642;2022-09-09T12:47:58;96331.38;;;26.90;21.75
64064;BME280;50314;50.618;10.642;2022-09-09T12:50:28;96325.50;;;26.93;22.19
64064;BME280;50314;50.618;10.642;2022-09-09T12:52:56;96322.59;;;26.94;22.30
64064;BME280;50314;50.618;10.642;2022-09-09T12:55:35;96312.59;;;26.95;21.74
64064;BME280;50314;50.618;10.642;2022-09-09T12:58:02;96311.25;;;27.04;22.21
64064;BME280;50314;50.618;10.642;2022-09-09T13:00:33;96302.47;;;27.09;21.80
64064;BME280;50314;50.618;10.642;2022-09-09T13:03:01;96304.13;;;27.10;21.72
64064;BME280;50314;50.618;10.642;2022-09-09T13:05:34;96290.41;;;27.11;21.55
64064;BME280;50314;50.618;10.642;2022-09-09T13:08:05;96280.94;;;27.02;22.04
64064;BME280;50314;50.618;10.642;2022-09-09T13:10:39;96291.81;;;26.95;22.03
64064;BME280;50314;50.618;10.642;2022-09-09T13:13:14;96284.00;;;26.87;22.26
64064;BME280;50314;50.618;10.642;2022-09-09T13:15:49;96279.53;;;26.81;21.88
64064;BME280;50314;50.618;10.642;2022-09-09T13:18:15;96284.94;;;26.81;22.45
64064;BME280;50314;50.618;10.642;2022-09-09T13:20:47;96282.53;;;26.73;22.17
64064;BME280;50314;50.618;10.642;2022-09-09T13:23:13;96281.09;;;26.70;21.93
64064;BME280;50314;50.618;10.642;2022-09-09T13:25:40;96288.00;;;26.66;22.18
64064;BME280;50314;50.618;10.642;2022-09-09T13:28:19;96290.34;;;26.63;22.29
64064;BME280;50314;50.618;10.642;2022-09-09T13:30:56;96275.47;;;26.54;22.13
64064;BME280;50314;50.618;10.642;2022-09-09T13:33:29;96277.34;;;26.53;22.28
64064;BME280;50314;50.618;10.642;2022-09-09T13:35:57;96278.00;;;26.48;22.52
64064;BME280;50314;50.618;10.642;2022-09-09T13:38:24;96275.75;;;26.45;22.64
64064;BME280;50314;50.618;10.642;2022-09-09T13:41:04;96267.13;;;26.37;22.38
64064;BME280;50314;50.618;10.642;2022-09-09T13:43:35;96263.41;;;26.38;22.33
64064;BME280;50314;50.618;10.642;2022-09-09T13:46:37;96256.03;;;26.27;22.72
64064;BME280;50314;50.618;10.642;2022-09-09T13:51:42;96261.88;;;26.23;22.71
64064;BME280;50314;50.618;10.642;2022-09-09T13:54:12;96260.00;;;26.24;22.81
64064;BME280;50314;50.618;10.642;2022-09-09T13:56:39;96255.88;;;26.21;22.54
64064;BME280;50314;50.618;10.642;2022-09-09T13:59:09;96263.38;;;26.19;22.57
64064;BME280;50314;50.618;10.642;2022-09-09T14:01:35;96257.84;;;26.14;22.89
64064;BME280;50314;50.618;10.642;2022-09-09T14:04:02;96250.00;;;26.06;22.62
64064;BME280;50314;50.618;10.642;2022-09-09T14:06:27;96257.66;;;26.09;22.91
64064;BME280;50314;50.618;10.642;2022-09-09T14:08:54;96267.00;;;26.07;22.99
64064;BME280;50314;50.618;10.642;2022-09-09T14:11:20;96263.94;;;26.03;22.90
64064;BME280;50314;50.618;10.642;2022-09-09T14:13:46;96258.81;;;25.95;22.85
64064;BME280;50314;50.618;10.642;2022-09-09T14:16:12;96259.19;;;25.98;23.11
64064;BME280;50314;50.618;10.642;2022-09-09T14:18:37;96256.13;;;25.95;23.17
64064;BME280;50314;50.618;10.642;2022-09-09T14:21:04;96252.22;;;25.91;23.03
64064;BME280;50314;50.618;10.642;2022-09-09T14:23:29;96250.78;;;25.88;22.98
64064;BME280;50314;50.618;10.642;2022-09-09T14:25:55;96258.06;;;25.88;23.00
64064;BME280;50314;50.618;10.642;2022-09-09T14:28:21;96262.25;;;25.84;23.06
64064;BME280;50314;50.618;10.642;2022-09-09T14:30:47;96248.38;;;25.80;23.17
64064;BME280;50314;50.618;10.642;2022-09-09T14:33:15;96248.00;;;25.76;23.19
64064;BME280;50314;50.618;10.642;2022-09-09T14:35:42;96247.38;;;25.74;23.10
64064;BME280;50314;50.618;10.642;2022-09-09T14:38:08;96240.34;;;25.73;23.09
64064;BME280;50314;50.618;10.642;2022-09-09T14:40:34;96239.50;;;25.73;23.30
64064;BME280;50314;50.618;10.642;2022-09-09T14:43:00;96240.41;;;25.67;23.49
64064;BME280;50314;50.618;10.642;2022-09-09T14:45:26;96239.72;;;25.71;23.36
64064;BME280;50314;50.618;10.642;2022-09-09T14:47:52;96249.06;;;25.69;23.17
64064;BME280;50314;50.618;10.642;2022-09-09T14:50:18;96246.81;;;25.66;23.21
64064;BME280;50314;50.618;10.642;2022-09-09T14:52:44;96260.75;;;25.63;23.32
64064;BME280;50314;50.618;10.642;2022-09-09T14:55:09;96248.75;;;25.59;23.46
64064;BME280;50314;50.618;10.642;2022-09-09T14:57:35;96253.31;;;25.58;23.56
64064;BME280;50314;50.618;10.642;2022-09-09T15:00:02;96246.72;;;25.54;23.35
64064;BME280;50314;50.618;10.642;2022-09-09T15:02:28;96249.63;;;25.52;23.44
64064;BME280;50314;50.618;10.642;2022-09-09T15:04:55;96252.75;;;25.49;23.61
64064;BME280;50314;50.618;10.642;2022-09-09T15:07:22;96256.72;;;25.47;23.50
64064;BME280;50314;50.618;10.642;2022-09-09T15:09:48;96250.09;;;25.43;23.54
64064;BME280;50314;50.618;10.642;2022-09-09T15:12:14;96242.47;;;25.40;23.65
64064;BME280;50314;50.618;10.642;2022-09-09T15:14:39;96255.31;;;25.38;23.68